Time;durP1;ratioP1;P1;durP2;ratioP2;P2;SDS_P1;SDS_P2;PMS_P1;PMS_P2;Temp;Humidity;BMP_temperature;BMP_pressure;BME280_temperature;BME280_humidity;BME280_pressure;Samples;Min_cycle;Max_cycle;Signal;HPM_P1;HPM_P2
2022/06/21 00:00:14;;;;;;;1999.90;999.90;;;19.70;99.90;;;;;;4940747;29;20032;-78
2022/06/21 00:02:40;;;;;;;1999.90;999.90;;;19.70;99.90;;;;;;4944866;29;20506;-79
2022/06/21 00:05:11;;;;;;;1999.90;999.90;;;19.60;99.90;;;;;;4939009;29;20078;-79
2022/06/21 00:07:37;;;;;;;1999.90;999.90;;;19.60;99.90;;;;;;4956089;29;20063;-78
2022/06/21 00:10:05;;;;;;;1999.90;999.90;;;19.50;99.90;;;;;;4953499;28;20050;-78
2022/06/21 00:12:31;;;;;;;1999.90;999.90;;;19.50;99.90;;;;;;4953155;29;20525;-79
2022/06/21 00:14:56;;;;;;;1999.90;999.90;;;19.40;99.90;;;;;;4938889;29;20055;-79
2022/06/21 00:17:22;;;;;;;1999.90;999.90;;;19.40;99.90;;;;;;4955943;29;20074;-78
2022/06/21 00:19:48;;;;;;;1999.90;999.90;;;19.40;99.90;;;;;;4938866;29;20118;-78
2022/06/21 00:22:17;;;;;;;1999.90;999.90;;;19.40;99.90;;;;;;4954968;29;20038;-78
2022/06/21 00:24:44;;;;;;;1999.90;999.90;;;19.40;99.90;;;;;;4956033;29;20027;-78
2022/06/21 00:27:18;;;;;;;1999.90;999.90;;;19.40;99.90;;;;;;4955871;29;20035;-78
2022/06/21 00:29:44;;;;;;;1999.90;999.90;;;19.40;99.90;;;;;;4955847;29;20455;-78
2022/06/21 00:32:18;;;;;;;1999.90;999.90;;;19.40;99.90;;;;;;4938316;29;20110;-78
2022/06/21 00:34:46;;;;;;;1999.90;999.90;;;19.50;99.90;;;;;;4948236;29;20027;-78
2022/06/21 00:37:19;;;;;;;1999.90;999.90;;;19.40;99.90;;;;;;4938071;29;20058;-78
2022/06/21 00:39:45;;;;;;;1999.90;999.90;;;19.40;99.90;;;;;;4933225;29;20024;-78
2022/06/21 00:42:26;;;;;;;1999.90;999.90;;;19.40;99.90;;;;;;4952378;29;20027;-79
2022/06/21 00:44:58;;;;;;;1999.90;999.90;;;19.50;99.90;;;;;;4934917;29;20495;-78
2022/06/21 00:47:30;;;;;;;1999.90;999.90;;;19.50;99.90;;;;;;4949624;29;20023;-78
2022/06/21 00:50:03;;;;;;;1999.90;999.90;;;19.60;99.90;;;;;;4955542;29;20082;-79
2022/06/21 00:52:41;;;;;;;1999.90;999.90;;;19.50;99.90;;;;;;4955235;29;20035;-79
2022/06/21 00:55:15;;;;;;;1999.90;999.90;;;19.50;99.90;;;;;;4955424;29;20043;-78
2022/06/21 00:57:53;;;;;;;1999.90;999.90;;;19.50;99.90;;;;;;4954262;29;20023;-78
2022/06/21 01:00:41;;;;;;;1999.90;999.90;;;19.50;99.90;;;;;;4938453;29;20039;-78
2022/06/21 01:03:17;;;;;;;1999.90;999.90;;;19.50;99.90;;;;;;4940583;29;20498;-78
2022/06/21 01:05:45;;;;;;;1999.90;999.90;;;19.50;99.90;;;;;;4930720;29;20114;-79
2022/06/21 01:08:15;;;;;;;1999.90;999.90;;;19.50;99.90;;;;;;4955141;29;20029;-78
2022/06/21 01:10:44;;;;;;;1999.90;999.90;;;19.50;99.90;;;;;;4932400;29;20029;-78
2022/06/21 01:13:17;;;;;;;1999.90;999.90;;;19.50;99.90;;;;;;4954537;29;20035;-78
2022/06/21 01:15:47;;;;;;;1999.90;999.90;;;19.40;99.90;;;;;;4954926;29;20051;-79
2022/06/21 01:18:16;;;;;;;1999.90;999.90;;;19.40;99.90;;;;;;4937767;29;20032;-78
2022/06/21 01:20:45;;;;;;;1999.90;999.90;;;19.40;99.90;;;;;;4954589;29;20035;-78
2022/06/21 01:23:22;;;;;;;1999.90;999.90;;;19.40;99.90;;;;;;4954920;28;20501;-78
2022/06/21 01:26:03;;;;;;;1999.90;999.90;;;19.30;99.90;;;;;;4954872;29;20035;-78
2022/06/21 01:28:31;;;;;;;1999.90;999.90;;;19.20;99.90;;;;;;4937467;29;20019;-78
2022/06/21 01:30:58;;;;;;;1999.90;999.90;;;19.30;99.90;;;;;;4937890;29;20031;-78
2022/06/21 01:33:54;;;;;;;1999.90;999.90;;;19.30;99.90;;;;;;4954663;29;20023;-78
2022/06/21 01:36:26;;;;;;;1999.90;999.90;;;19.30;99.90;;;;;;4950702;29;20580;-78
2022/06/21 01:39:21;;;;;;;1999.90;999.90;;;19.20;99.90;;;;;;4929746;29;20024;-77
2022/06/21 01:42:06;;;;;;;1999.90;999.90;;;19.20;99.90;;;;;;4926733;29;20051;-79
2022/06/21 01:44:39;;;;;;;1999.90;999.90;;;19.20;99.90;;;;;;4933608;29;20375;-79
2022/06/21 01:47:11;;;;;;;1999.90;999.90;;;19.20;99.90;;;;;;4949187;29;20078;-78
2022/06/21 01:49:44;;;;;;;1999.90;999.90;;;19.20;99.90;;;;;;4937375;29;20561;-78
2022/06/21 01:52:12;;;;;;;;;;;19.20;99.90;;;;;;4954916;29;20031;-79
2022/06/21 01:54:43;;;;;;;1999.90;999.90;;;19.20;99.90;;;;;;4954171;29;19929;-78
2022/06/21 01:57:11;;;;;;;1999.90;999.90;;;19.20;99.90;;;;;;4937659;29;20039;-79
2022/06/21 01:59:42;;;;;;;1999.90;999.90;;;19.20;99.90;;;;;;4943309;29;20574;-79
2022/06/21 02:02:34;;;;;;;1999.90;999.90;;;19.20;99.90;;;;;;4940496;29;20114;-79
2022/06/21 02:05:06;;;;;;;1999.90;999.90;;;19.20;99.90;;;;;;4935329;29;20039;-79
2022/06/21 02:07:39;;;;;;;1999.90;999.90;;;19.10;99.90;;;;;;4954668;29;20023;-78
2022/06/21 02:10:18;;;;;;;1999.90;999.90;;;19.10;99.90;;;;;;4951845;29;20027;-78
2022/06/21 02:12:53;;;;;;;1999.90;999.90;;;19.10;99.90;;;;;;4953379;29;20380;-78
2022/06/21 02:15:37;;;;;;;1999.90;999.90;;;19.10;99.90;;;;;;4954229;29;20024;-79
2022/06/21 02:18:08;;;;;;;1999.90;999.90;;;19.00;99.90;;;;;;4954175;29;20066;-79
2022/06/21 02:20:37;;;;;;;1999.90;999.90;;;19.00;99.90;;;;;;4951231;29;20024;-78
2022/06/21 02:23:05;;;;;;;1999.90;999.90;;;19.00;99.90;;;;;;4941384;29;20463;-78
2022/06/21 02:25:30;;;;;;;1999.90;999.90;;;18.90;99.90;;;;;;4954216;29;20058;-78
2022/06/21 02:28:06;;;;;;;1999.90;999.90;;;19.00;99.90;;;;;;4954453;29;20110;-78
2022/06/21 02:30:32;;;;;;;1999.90;999.90;;;19.00;99.90;;;;;;4953844;29;20054;-78
2022/06/21 02:33:00;;;;;;;1999.90;999.90;;;19.00;99.90;;;;;;4942696;29;20067;-77
2022/06/21 02:35:41;;;;;;;1999.90;999.90;;;19.00;99.90;;;;;;4943900;29;20019;-78
2022/06/21 02:38:13;;;;;;;1999.90;999.90;;;19.00;99.90;;;;;;4939541;29;20032;-78
2022/06/21 02:40:44;;;;;;;1999.90;999.90;;;18.90;99.90;;;;;;4957389;29;20027;-78
2022/06/21 02:43:33;;;;;;;1999.90;999.90;;;18.90;99.90;;;;;;4951335;29;20030;-78
2022/06/21 02:46:28;;;;;;;1999.90;999.90;;;18.90;99.90;;;;;;4937133;29;20079;-78
2022/06/21 02:49:00;;;;;;;1999.90;999.90;;;18.90;99.90;;;;;;4947316;29;20035;-79
2022/06/21 02:52:06;;;;;;;1999.90;999.90;;;18.80;99.90;;;;;;4957359;29;20034;-79
2022/06/21 02:54:38;;;;;;;1999.90;999.90;;;18.80;99.90;;;;;;4879557;29;20146;-78
2022/06/21 02:57:17;;;;;;;1999.90;999.90;;;18.80;99.90;;;;;;4879901;29;20037;-79
2022/06/21 02:59:44;;;;;;;1999.90;999.90;;;18.80;99.90;;;;;;4901973;29;20066;-78
2022/06/21 03:02:14;;;;;;;1999.90;999.90;;;18.80;99.90;;;;;;4951102;29;20106;-78
2022/06/21 03:04:55;;;;;;;1999.90;999.90;;;18.70;99.90;;;;;;4939508;29;20394;-78
2022/06/21 03:07:28;;;;;;;1999.90;999.90;;;18.70;99.90;;;;;;4957128;29;20019;-78
2022/06/21 03:09:54;;;;;;;1999.90;999.90;;;18.70;99.90;;;;;;4956419;29;20031;-78
2022/06/21 03:12:23;;;;;;;1999.90;999.90;;;18.70;99.90;;;;;;4953105;29;20023;-78
2022/06/21 03:14:53;;;;;;;1999.90;999.90;;;18.70;99.90;;;;;;4957483;29;20063;-78
2022/06/21 03:17:23;;;;;;;1999.90;999.90;;;18.70;99.90;;;;;;4957004;29;20105;-78
2022/06/21 03:19:53;;;;;;;1999.90;999.90;;;18.70;99.90;;;;;;4957265;29;20030;-79
2022/06/21 03:22:29;;;;;;;1999.90;999.90;;;18.60;99.90;;;;;;4939321;29;20050;-78
2022/06/21 03:24:58;;;;;;;1999.90;999.90;;;18.70;99.90;;;;;;4957238;29;20031;-78
2022/06/21 03:27:31;;;;;;;1999.90;999.90;;;18.70;99.90;;;;;;4957113;29;20438;-78
2022/06/21 03:29:57;;;;;;;1999.90;999.90;;;18.70;99.90;;;;;;4957392;29;20434;-78
2022/06/21 03:32:26;;;;;;;1999.90;999.90;;;18.70;99.90;;;;;;4956906;29;20031;-78
2022/06/21 03:34:53;;;;;;;1999.90;999.90;;;18.70;99.90;;;;;;4956980;29;20079;-78
2022/06/21 03:37:20;;;;;;;1999.90;999.90;;;18.70;99.90;;;;;;4956530;29;20032;-78
2022/06/21 03:42:36;;;;;;;1999.90;999.90;;;18.70;99.90;;;;;;4961038;29;20042;-79
2022/06/21 03:45:04;;;;;;;1999.90;999.90;;;18.70;99.90;;;;;;4956003;28;20037;-79
2022/06/21 03:47:38;;;;;;;1999.90;999.90;;;18.70;99.90;;;;;;4950629;29;20495;-78
2022/06/21 03:50:10;;;;;;;1999.90;999.90;;;18.70;99.90;;;;;;4956627;29;20498;-78
2022/06/21 03:52:59;;;;;;;1999.90;999.90;;;18.60;99.90;;;;;;4956422;29;20506;-79
2022/06/21 03:55:36;;;;;;;1999.90;999.90;;;18.60;99.90;;;;;;4931698;29;20047;-79
2022/06/21 03:58:08;;;;;;;1999.90;999.90;;;18.50;99.90;;;;;;4951314;29;20066;-78
2022/06/21 04:00:59;;;;;;;1999.90;999.90;;;18.50;99.90;;;;;;4956290;29;20027;-79
2022/06/21 04:03:41;;;;;;;1999.90;999.90;;;18.50;99.90;;;;;;4949062;29;20170;-79
2022/06/21 04:06:30;;;;;;;1999.90;999.90;;;18.40;99.90;;;;;;4955182;29;20074;-78
2022/06/21 04:09:05;;;;;;;1999.90;999.90;;;18.40;99.90;;;;;;4956321;29;20034;-79
2022/06/21 04:12:03;;;;;;;1999.90;999.90;;;18.40;99.90;;;;;;4950881;29;20023;-78
2022/06/21 04:14:44;;;;;;;1999.90;999.90;;;18.40;99.90;;;;;;4938342;29;20031;-79
2022/06/21 04:17:33;;;;;;;1999.90;999.90;;;18.40;99.90;;;;;;4955928;29;20086;-79
2022/06/21 04:20:02;;;;;;;1999.90;999.90;;;18.40;99.90;;;;;;4946863;29;20411;-79
2022/06/21 04:22:48;;;;;;;1999.90;999.90;;;18.40;99.90;;;;;;4955179;29;20031;-79
2022/06/21 04:25:24;;;;;;;1999.90;999.90;;;18.30;99.90;;;;;;4945392;29;20574;-78
2022/06/21 04:27:58;;;;;;;1999.90;999.90;;;18.30;99.90;;;;;;4956181;29;20035;-79
2022/06/21 04:30:26;;;;;;;1999.90;999.90;;;18.30;99.90;;;;;;4955925;29;20402;-78
2022/06/21 04:33:14;;;;;;;1999.90;999.90;;;18.30;99.90;;;;;;4955840;29;20550;-79
2022/06/21 04:35:50;;;;;;;1999.90;999.90;;;18.30;99.90;;;;;;4956113;29;20027;-78
2022/06/21 04:38:26;;;;;;;1999.90;999.90;;;18.20;99.90;;;;;;4955631;29;20082;-77
2022/06/21 04:41:02;;;;;;;1999.90;999.90;;;18.20;99.90;;;;;;4959431;28;20031;-78
2022/06/21 04:43:50;;;;;;;1999.90;999.90;;;18.20;99.90;;;;;;4938200;29;20038;-77
2022/06/21 04:46:27;;;;;;;1999.90;999.90;;;18.20;99.90;;;;;;4949767;29;20525;-79
2022/06/21 04:49:02;;;;;;;1999.90;999.90;;;18.20;99.90;;;;;;4955452;29;20019;-79
2022/06/21 04:51:40;;;;;;;1999.90;999.90;;;18.20;99.90;;;;;;4955217;29;20032;-77
2022/06/21 04:54:16;;;;;;;1999.90;999.90;;;18.30;99.90;;;;;;4939143;29;20391;-78
2022/06/21 04:56:47;;;;;;;1999.90;999.90;;;18.30;99.90;;;;;;4938037;29;20175;-79
2022/06/21 04:59:39;;;;;;;1999.90;999.90;;;18.30;99.90;;;;;;4955518;29;20027;-77
2022/06/21 05:02:10;;;;;;;1999.90;999.90;;;18.30;99.90;;;;;;4944759;29;20431;-78
2022/06/21 05:04:40;;;;;;;1999.90;999.90;;;18.30;99.90;;;;;;4954093;29;20082;-77
2022/06/21 05:07:17;;;;;;;1999.90;999.90;;;18.40;99.90;;;;;;4954506;29;20034;-76
2022/06/21 05:09:43;;;;;;;1999.90;999.90;;;18.40;99.90;;;;;;4943463;29;20554;-78
2022/06/21 05:12:31;;;;;;;1999.90;999.90;;;18.40;99.90;;;;;;4952431;29;20027;-78
2022/06/21 05:15:14;;;;;;;1999.90;999.90;;;18.50;99.90;;;;;;4955211;29;20078;-78
2022/06/21 05:17:43;;;;;;;1999.90;999.90;;;18.50;99.90;;;;;;4954735;29;20031;-79
2022/06/21 05:20:18;;;;;;;1999.90;999.90;;;18.60;99.90;;;;;;4954635;29;20023;-78
2022/06/21 05:22:47;;;;;;;1999.90;999.90;;;18.60;99.90;;;;;;4942821;29;20049;-78
2022/06/21 05:25:36;;;;;;;1999.90;999.90;;;18.60;99.90;;;;;;4955075;29;20533;-78
2022/06/21 05:28:15;;;;;;;1999.90;999.90;;;18.70;99.90;;;;;;4954643;29;20439;-78
2022/06/21 05:30:41;;;;;;;1999.90;999.90;;;18.80;99.90;;;;;;4955060;29;20529;-79
2022/06/21 05:33:19;;;;;;;1999.90;999.90;;;18.80;99.90;;;;;;4954492;29;20106;-77
2022/06/21 05:35:45;;;;;;;1999.90;999.90;;;18.90;99.90;;;;;;4954853;28;20094;-78
2022/06/21 05:38:17;;;;;;;1999.90;999.90;;;19.00;99.90;;;;;;4952366;28;20470;-78
2022/06/21 05:41:03;;;;;;;1999.90;999.90;;;19.00;99.90;;;;;;4954565;29;20046;-78
2022/06/21 05:43:46;;;;;;;1999.90;999.90;;;19.10;99.90;;;;;;4955427;29;20027;-77
2022/06/21 05:46:17;;;;;;;;;;;19.20;99.90;;;;;;4949832;29;20150;-78
2022/06/21 05:48:44;;;;;;;1999.90;999.90;;;19.30;99.90;;;;;;4937018;29;20294;-78
2022/06/21 05:51:19;;;;;;;1999.90;999.90;;;19.30;99.90;;;;;;4954290;29;20078;-79
2022/06/21 05:54:04;;;;;;;1999.90;999.90;;;19.50;99.90;;;;;;4954695;28;20051;-79
2022/06/21 05:56:31;;;;;;;1999.90;999.90;;;19.60;99.90;;;;;;4954578;29;20019;-78
2022/06/21 05:59:00;;;;;;;1999.90;999.90;;;19.70;99.90;;;;;;4942776;29;20025;-79
2022/06/21 06:01:33;;;;;;;1999.90;999.90;;;19.80;99.90;;;;;;4921488;29;20500;-78
2022/06/21 06:04:08;;;;;;;1999.90;999.90;;;19.90;99.90;;;;;;4940447;29;20027;-78
2022/06/21 06:06:36;;;;;;;1999.90;999.90;;;20.00;99.90;;;;;;4936283;29;20059;-78
2022/06/21 06:09:10;;;;;;;1999.90;999.90;;;20.20;99.90;;;;;;4955591;28;20066;-78
2022/06/21 06:12:02;;;;;;;1999.90;999.90;;;20.30;99.90;;;;;;4933250;29;20107;-78
2022/06/21 06:14:40;;;;;;;1999.90;999.90;;;20.40;99.90;;;;;;4935971;29;20106;-78
2022/06/21 06:17:18;;;;;;;1999.90;999.90;;;20.40;99.90;;;;;;4924471;29;20043;-78
2022/06/21 06:19:53;;;;;;;1999.90;999.90;;;20.50;99.90;;;;;;4934334;29;20039;-79
2022/06/21 06:22:29;;;;;;;1999.90;999.90;;;20.70;99.90;;;;;;4929530;29;20437;-77
2022/06/21 06:25:05;;;;;;;1999.90;999.90;;;20.80;99.90;;;;;;4931783;29;20024;-79
2022/06/21 06:27:34;;;;;;;1999.90;999.90;;;20.80;99.90;;;;;;4932331;29;20091;-77
2022/06/21 06:30:04;;;;;;;1999.90;999.90;;;21.00;99.90;;;;;;4921303;29;20064;-78
2022/06/21 06:32:37;;;;;;;1999.90;999.90;;;20.90;99.90;;;;;;4950735;29;20062;-79
2022/06/21 06:35:12;;;;;;;1999.90;999.90;;;20.80;99.90;;;;;;4929535;29;20175;-76
2022/06/21 06:37:42;;;;;;;1999.90;999.90;;;20.90;99.90;;;;;;4935969;29;20071;-79
2022/06/21 06:40:23;;;;;;;1999.90;999.90;;;21.00;99.90;;;;;;4932051;29;20034;-77
2022/06/21 06:42:58;;;;;;;1999.90;999.90;;;21.00;99.90;;;;;;4942580;29;20403;-77
2022/06/21 06:45:29;;;;;;;1999.90;999.90;;;21.10;99.90;;;;;;4930283;29;20498;-78
2022/06/21 06:48:03;;;;;;;1999.90;999.90;;;21.50;99.90;;;;;;4927597;29;20151;-77
2022/06/21 06:50:39;;;;;;;1999.90;999.90;;;21.80;99.90;;;;;;4929772;29;20605;-78
2022/06/21 06:53:31;;;;;;;1999.90;999.90;;;21.90;99.90;;;;;;4946803;28;20113;-78
2022/06/21 06:56:01;;;;;;;1999.90;999.90;;;21.80;99.90;;;;;;4946252;29;20024;-77
2022/06/21 06:58:50;;;;;;;1999.90;999.90;;;21.90;99.90;;;;;;4934820;29;20534;-78
2022/06/21 07:01:23;;;;;;;1999.90;999.90;;;22.00;99.90;;;;;;4943683;29;20051;-77
2022/06/21 07:03:53;;;;;;;1999.90;999.90;;;22.00;99.90;;;;;;4919189;29;20024;-78
2022/06/21 07:06:21;;;;;;;1999.90;999.90;;;22.10;99.90;;;;;;4934279;29;20792;-78
2022/06/21 07:09:13;;;;;;;1999.90;999.90;;;22.30;99.90;;;;;;4938509;29;20463;-78
2022/06/21 07:11:39;;;;;;;1999.90;999.90;;;22.40;99.90;;;;;;4925015;29;20043;-78
2022/06/21 07:14:29;;;;;;;1999.90;999.90;;;22.20;99.90;;;;;;4921884;29;20031;-78
2022/06/21 07:17:16;;;;;;;1999.90;999.90;;;22.10;99.90;;;;;;4931804;29;20046;-77
2022/06/21 07:19:42;;;;;;;1999.90;999.90;;;22.40;99.90;;;;;;4924964;29;20056;-78
2022/06/21 07:22:17;;;;;;;1999.90;999.90;;;22.70;99.90;;;;;;4917860;29;20106;-78
2022/06/21 07:25:12;;;;;;;1999.90;999.90;;;22.60;99.90;;;;;;4934657;29;20035;-79
2022/06/21 07:27:41;;;;;;;1999.90;999.90;;;22.60;99.90;;;;;;4940342;29;20130;-78
2022/06/21 07:30:13;;;;;;;1999.90;999.90;;;22.90;99.90;;;;;;4937014;29;20036;-77
2022/06/21 07:32:55;;;;;;;1999.90;999.90;;;23.00;99.90;;;;;;4938947;29;20051;-78
2022/06/21 07:35:29;;;;;;;1999.90;999.90;;;24.90;99.90;;;;;;4941103;29;20035;-79
2022/06/21 07:38:09;;;;;;;1999.90;999.90;;;26.00;99.90;;;;;;4921614;29;20391;-79
2022/06/21 07:40:40;;;;;;;1999.90;999.90;;;27.50;99.90;;;;;;4933648;29;20440;-79
2022/06/21 07:43:25;;;;;;;1999.90;999.90;;;26.90;99.90;;;;;;4939747;29;20225;-78
2022/06/21 07:45:54;;;;;;;1999.90;999.90;;;27.70;99.90;;;;;;4939023;29;20032;-78
2022/06/21 07:48:33;;;;;;;1999.90;999.90;;;26.80;99.90;;;;;;4943419;29;20040;-78
2022/06/21 07:51:06;;;;;;;1999.90;999.90;;;25.70;99.90;;;;;;4937584;29;20020;-79
2022/06/21 07:53:41;;;;;;;1999.90;999.90;;;25.40;99.90;;;;;;4922602;29;20059;-77
2022/06/21 07:56:25;;;;;;;1999.90;999.90;;;24.70;99.90;;;;;;4937994;29;20483;-78
2022/06/21 07:58:58;;;;;;;1999.90;999.90;;;25.00;99.90;;;;;;4934418;29;20034;-78
2022/06/21 08:07:56;;;;;;;1999.90;999.90;;;23.70;99.90;;;;;;4933593;29;20095;-79
2022/06/21 08:10:40;;;;;;;1999.90;999.90;;;25.50;99.90;;;;;;4931971;29;20111;-78
2022/06/21 08:13:06;;;;;;;1999.90;999.90;;;26.90;99.90;;;;;;4913414;29;20024;-78
2022/06/21 08:15:39;;;;;;;1999.90;999.90;;;27.70;99.90;;;;;;4944988;29;20043;-78
2022/06/21 08:18:14;;;;;;;1999.90;999.90;;;27.70;99.90;;;;;;4916461;29;20031;-78
2022/06/21 08:20:47;;;;;;;1999.90;999.90;;;26.80;99.90;;;;;;4934398;29;20040;-78
2022/06/21 08:23:24;;;;;;;1999.90;999.90;;;26.80;99.90;;;;;;4934175;29;20125;-78
2022/06/21 08:26:00;;;;;;;1999.90;999.90;;;26.60;99.90;;;;;;4921273;29;20108;-78
2022/06/21 08:28:47;;;;;;;1999.90;999.90;;;26.00;99.90;;;;;;4932861;29;20016;-78
2022/06/21 08:31:24;;;;;;;1999.90;999.90;;;25.50;99.90;;;;;;4929223;29;20048;-78
2022/06/21 08:33:55;;;;;;;1999.90;999.90;;;24.80;99.90;;;;;;4932955;29;20034;-78
2022/06/21 08:36:52;;;;;;;1999.90;999.90;;;25.20;99.90;;;;;;4945066;29;20031;-78
2022/06/21 08:39:29;;;;;;;1999.90;999.90;;;26.40;99.90;;;;;;4928474;29;20042;-78
2022/06/21 08:42:29;;;;;;;1999.90;999.90;;;26.60;99.90;;;;;;4933438;29;20047;-78
2022/06/21 08:47:58;;;;;;;1999.90;999.90;;;26.50;99.90;;;;;;4933532;29;20559;-78
2022/06/21 08:50:24;;;;;;;1999.90;999.90;;;25.90;99.90;;;;;;4933329;29;20034;-77
2022/06/21 08:53:11;;;;;;;1999.90;999.90;;;25.30;99.90;;;;;;4917237;29;20031;-78
2022/06/21 08:55:57;;;;;;;1999.90;999.90;;;24.90;99.90;;;;;;4945318;29;20043;-78
2022/06/21 08:58:32;;;;;;;1999.90;999.90;;;24.50;99.90;;;;;;4947936;29;20110;-77
2022/06/21 09:01:19;;;;;;;1999.90;999.90;;;24.20;99.90;;;;;;4932149;29;20035;-77
2022/06/21 09:04:13;;;;;;;1999.90;999.90;;;23.90;99.90;;;;;;4950322;28;20058;-77
2022/06/21 09:07:07;;;;;;;1999.90;999.90;;;23.40;99.90;;;;;;4943773;28;20505;-78
2022/06/21 09:09:36;;;;;;;1999.90;999.90;;;23.20;99.90;;;;;;4951842;29;20034;-78
2022/06/21 09:12:07;;;;;;;1999.90;999.90;;;23.10;99.90;;;;;;4957470;28;20035;-79
2022/06/21 09:14:45;;;;;;;1999.90;999.90;;;23.10;99.90;;;;;;4944356;29;20466;-77
2022/06/21 09:17:30;;;;;;;1999.90;999.90;;;22.90;99.90;;;;;;4951775;29;20035;-79
2022/06/21 09:20:24;;;;;;;1999.90;999.90;;;23.10;99.90;;;;;;4942353;28;20497;-77
2022/06/21 09:23:09;;;;;;;1999.90;999.90;;;23.60;99.90;;;;;;4941078;29;20059;-80
2022/06/21 09:25:59;;;;;;;1999.90;999.90;;;24.80;99.90;;;;;;4952099;29;20027;-78
2022/06/21 09:28:42;;;;;;;1999.90;999.90;;;24.50;99.90;;;;;;4953829;28;20110;-77
2022/06/21 09:31:17;;;;;;;1999.90;999.90;;;24.20;99.90;;;;;;4951412;28;20027;-74
2022/06/21 09:34:13;;;;;;;1999.90;999.90;;;24.50;99.90;;;;;;4953488;28;20482;-74
2022/06/21 09:37:15;;;;;;;1999.90;999.90;;;24.60;99.90;;;;;;4948715;29;20430;-75
2022/06/21 09:39:50;;;;;;;1999.90;999.90;;;24.60;99.90;;;;;;4940373;29;20569;-77
2022/06/21 09:42:34;;;;;;;1999.90;999.90;;;24.10;99.90;;;;;;4951938;29;20035;-77
2022/06/21 09:45:10;;;;;;;1999.90;999.90;;;23.80;99.90;;;;;;4947769;29;20032;-75
2022/06/21 09:47:54;;;;;;;1999.90;999.90;;;23.50;99.90;;;;;;4959068;28;20210;-77
2022/06/21 09:50:31;;;;;;;1999.90;999.90;;;23.60;99.90;;;;;;4956446;28;20031;-77
2022/06/21 09:53:16;;;;;;;1999.90;999.90;;;23.30;99.90;;;;;;4957076;28;20040;-74
2022/06/21 09:55:55;;;;;;;1999.90;999.90;;;23.30;99.90;;;;;;4955257;28;20037;-75
2022/06/21 09:58:41;;;;;;;1999.90;999.90;;;23.50;99.90;;;;;;4958324;28;20451;-77
2022/06/21 10:01:14;;;;;;;1999.90;999.90;;;24.10;99.90;;;;;;4963698;28;20035;-74
2022/06/21 10:04:28;;;;;;;1999.90;999.90;;;24.00;99.90;;;;;;4950380;29;20851;-78
2022/06/21 10:07:14;;;;;;;1999.90;999.90;;;24.00;99.90;;;;;;4904979;29;20514;-78
2022/06/21 10:09:46;;;;;;;1999.90;999.90;;;23.70;99.90;;;;;;4941748;28;20459;-76
2022/06/21 10:12:29;;;;;;;1999.90;999.90;;;24.00;99.90;;;;;;4953374;28;20035;-78
2022/06/21 10:15:16;;;;;;;1999.90;999.90;;;24.40;99.90;;;;;;4940688;29;20312;-78
2022/06/21 10:18:11;;;;;;;1999.90;999.90;;;25.00;99.90;;;;;;4949640;29;20445;-77
2022/06/21 10:21:16;;;;;;;1999.90;999.90;;;26.00;99.90;;;;;;4951654;29;20024;-77
2022/06/21 10:24:01;;;;;;;1999.90;999.90;;;27.60;99.90;;;;;;4951435;29;20031;-77
2022/06/21 10:26:39;;;;;;;1999.90;999.90;;;29.60;99.90;;;;;;4951816;29;20043;-77
2022/06/21 10:29:32;;;;;;;1999.90;999.90;;;28.70;99.90;;;;;;4944147;29;20023;-76
2022/06/21 10:32:01;;;;;;;1999.90;999.90;;;27.40;99.90;;;;;;4936923;29;20753;-76
2022/06/21 10:34:54;;;;;;;1999.90;999.90;;;26.80;99.90;;;;;;4948505;29;20027;-75
2022/06/21 10:37:38;;;;;;;1999.90;999.90;;;25.70;99.90;;;;;;4939931;29;20059;-77
2022/06/21 10:40:18;;;;;;;1999.90;999.90;;;24.80;99.90;;;;;;4934318;29;20030;-76
2022/06/21 10:43:05;;;;;;;1999.90;999.90;;;24.60;99.90;;;;;;4951611;28;20458;-76
2022/06/21 10:45:58;;;;;;;1999.90;999.90;;;25.30;99.90;;;;;;4949546;28;20465;-77
2022/06/21 10:48:32;;;;;;;1999.90;999.90;;;25.70;99.90;;;;;;4947537;29;20031;-76
2022/06/21 10:51:10;;;;;;;1999.90;999.90;;;25.60;99.90;;;;;;4929995;28;20394;-76
2022/06/21 10:54:00;;;;;;;1999.90;999.90;;;24.90;99.90;;;;;;4947657;28;20474;-76
2022/06/21 10:57:09;;;;;;;1999.90;999.90;;;24.80;99.90;;;;;;4951586;29;20038;-75
2022/06/21 11:02:59;;;;;;;1999.90;999.90;;;24.90;99.90;;;;;;4951008;28;20038;-76
2022/06/21 11:05:37;;;;;;;1999.90;999.90;;;24.80;99.90;;;;;;4952700;29;20131;-77
2022/06/21 11:08:11;;;;;;;1999.90;999.90;;;24.70;99.90;;;;;;4950259;29;20020;-77
2022/06/21 11:11:20;;;;;;;1999.90;999.90;;;25.00;99.90;;;;;;4952369;28;20453;-77
2022/06/21 11:14:00;;;;;;;1999.90;999.90;;;26.00;99.90;;;;;;4875592;29;20039;-76
2022/06/21 11:16:50;;;;;;;1999.90;999.90;;;26.30;99.90;;;;;;4873595;29;20045;-76
2022/06/21 11:19:30;;;;;;;1999.90;999.90;;;26.00;99.90;;;;;;4934130;29;20045;-76
2022/06/21 11:22:11;;;;;;;1999.90;999.90;;;26.00;99.90;;;;;;4951219;28;20039;-76
2022/06/21 11:24:39;;;;;;;1999.90;999.90;;;25.60;99.90;;;;;;4953304;29;20493;-76
2022/06/21 11:27:30;;;;;;;1999.90;999.90;;;25.80;99.90;;;;;;4954155;29;20035;-76
2022/06/21 11:30:06;;;;;;;1999.90;999.90;;;26.70;99.90;;;;;;4949833;29;20102;-78
2022/06/21 11:32:56;;;;;;;1999.90;999.90;;;27.90;99.90;;;;;;4954013;28;20045;-76
2022/06/21 11:35:43;;;;;;;1999.90;999.90;;;29.10;99.90;;;;;;4954082;29;20521;-76
2022/06/21 11:38:15;;;;;;;1999.90;999.90;;;29.30;99.90;;;;;;4939706;29;20043;-75
2022/06/21 11:42:04;;;;;;;1999.90;999.90;;;29.50;99.60;;;;;;4940624;29;20039;-77
2022/06/21 11:44:19;;;;;;;1999.90;999.90;;;29.90;99.20;;;;;;4949376;29;20043;-77
2022/06/21 11:46:50;;;;;;;1999.90;999.90;;;29.70;98.80;;;;;;4956951;28;20035;-78
2022/06/21 11:49:34;;;;;;;1999.90;999.90;;;29.20;99.10;;;;;;4953910;29;20514;-77
2022/06/21 11:52:16;;;;;;;1999.90;999.90;;;29.60;99.00;;;;;;4936209;29;20114;-78
2022/06/21 11:55:00;;;;;;;1999.90;999.90;;;28.70;99.50;;;;;;4937839;29;20102;-76
2022/06/21 11:58:00;;;;;;;1999.90;999.90;;;27.90;99.90;;;;;;4919298;29;20471;-77
2022/06/21 12:00:37;;;;;;;1999.90;999.90;;;28.30;99.90;;;;;;4922578;29;20058;-77
2022/06/21 12:03:04;;;;;;;1999.90;999.90;;;28.30;99.90;;;;;;4926099;29;20035;-76
2022/06/21 12:05:53;;;;;;;1999.90;999.90;;;28.60;99.90;;;;;;4942142;29;20019;-76
2022/06/21 12:08:27;;;;;;;1999.90;999.90;;;28.80;99.90;;;;;;4933994;29;20098;-78
2022/06/21 12:11:02;;;;;;;1999.90;999.90;;;29.10;99.80;;;;;;4933562;29;20024;-76
2022/06/21 12:13:43;;;;;;;1999.90;999.90;;;29.30;98.80;;;;;;4941429;29;20035;-77
2022/06/21 12:16:28;;;;;;;1999.90;999.90;;;28.80;99.70;;;;;;4940029;29;20513;-77
2022/06/21 12:19:00;;;;;;;1999.90;999.90;;;29.00;99.70;;;;;;4930827;29;20042;-77
2022/06/21 12:21:30;;;;;;;1999.90;999.90;;;28.70;99.70;;;;;;4934280;29;20028;-78
2022/06/21 12:24:00;;;;;;;1999.90;999.90;;;29.20;99.60;;;;;;4902389;29;20071;-78
2022/06/21 12:26:29;;;;;;;1999.90;999.90;;;28.20;99.90;;;;;;4938422;29;20023;-77
2022/06/21 12:28:57;;;;;;;1999.90;999.90;;;28.30;99.90;;;;;;4942516;29;20016;-78
2022/06/21 12:31:29;;;;;;;1999.90;999.90;;;28.10;99.90;;;;;;4940766;29;20043;-77
2022/06/21 12:34:02;;;;;;;1999.90;999.90;;;28.20;99.90;;;;;;4944185;29;20027;-77
2022/06/21 12:36:33;;;;;;;1999.90;999.90;;;27.70;99.90;;;;;;4939184;29;20115;-76
2022/06/21 12:39:29;;;;;;;1999.90;999.90;;;27.50;99.90;;;;;;4922374;29;20037;-76
2022/06/21 12:42:15;;;;;;;1999.90;999.90;;;27.60;99.90;;;;;;4939745;29;20110;-76
2022/06/21 12:44:56;;;;;;;1999.90;999.90;;;27.40;99.90;;;;;;4914595;29;20090;-76
2022/06/21 12:48:10;;;;;;;1999.90;999.90;;;27.30;99.90;;;;;;4929068;29;20523;-75
2022/06/21 12:50:59;;;;;;;1999.90;999.90;;;27.30;99.90;;;;;;4915720;29;20115;-75
2022/06/21 12:53:39;;;;;;;1999.90;999.90;;;26.70;99.90;;;;;;4934535;29;20605;-75
2022/06/21 12:56:10;;;;;;;1999.90;999.90;;;26.40;99.90;;;;;;4937071;28;20035;-76
2022/06/21 12:58:57;;;;;;;1999.90;999.90;;;26.10;99.90;;;;;;4955493;28;20027;-75
2022/06/21 13:01:37;;;;;;;1999.90;999.90;;;25.90;99.90;;;;;;4952440;29;20187;-77
2022/06/21 13:04:21;;;;;;;1999.90;999.90;;;26.10;99.90;;;;;;4929623;29;20129;-75
2022/06/21 13:07:11;;;;;;;1999.90;999.90;;;26.20;99.90;;;;;;4954683;28;20490;-76